createdAt,value
2018-02-18T00:02:25.678Z,93.20
2018-02-18T00:04:53.142Z,87.30
2018-02-18T00:07:20.603Z,85.27
2018-02-18T00:09:48.056Z,84.10
2018-02-18T00:12:15.520Z,82.03
2018-02-18T00:14:46.876Z,82.30
2018-02-18T00:17:14.347Z,79.80
2018-02-18T00:19:42.563Z,83.40
2018-02-18T00:22:10.819Z,83.90
2018-02-18T00:24:38.275Z,74.00
2018-02-18T00:27:05.728Z,76.90
2018-02-18T00:29:33.180Z,75.70
2018-02-18T00:32:01.396Z,71.17
2018-02-18T00:34:28.864Z,74.40
2018-02-18T00:36:56.315Z,79.00
2018-02-18T00:39:23.773Z,90.97
2018-02-18T00:41:51.222Z,78.63
2018-02-18T00:44:18.698Z,78.20
2018-02-18T00:46:46.140Z,71.73
2018-02-18T00:49:13.599Z,76.40
2018-02-18T00:51:41.052Z,85.43
2018-02-18T00:54:08.508Z,79.03
2018-02-18T00:56:35.959Z,64.13
2018-02-18T00:59:03.417Z,81.50
2018-02-18T01:01:30.871Z,67.07
2018-02-18T01:03:58.323Z,63.57
2018-02-18T01:06:25.775Z,71.07
2018-02-18T01:08:53.240Z,77.80
2018-02-18T01:11:20.693Z,69.53
2018-02-18T01:13:48.152Z,76.37
2018-02-18T01:16:15.595Z,78.63
2018-02-18T01:18:43.051Z,71.10
2018-02-18T01:21:10.511Z,77.40
2018-02-18T01:23:37.964Z,79.80
2018-02-18T01:26:05.428Z,78.17
2018-02-18T01:28:32.895Z,83.90
2018-02-18T01:31:00.351Z,90.77
2018-02-18T01:33:27.815Z,84.97
2018-02-18T01:35:55.267Z,75.13
2018-02-18T01:38:22.728Z,87.47
2018-02-18T01:40:50.183Z,85.23
2018-02-18T01:43:17.639Z,80.03
2018-02-18T01:45:45.094Z,81.27
2018-02-18T01:48:12.545Z,78.20
2018-02-18T01:50:40.007Z,75.47
2018-02-18T01:53:07.463Z,82.53
2018-02-18T01:55:34.924Z,81.83
2018-02-18T01:58:02.381Z,85.97
2018-02-18T02:00:29.844Z,88.77
2018-02-18T02:02:57.312Z,72.77
2018-02-18T02:05:24.759Z,74.50
2018-02-18T02:07:52.215Z,83.10
2018-02-18T02:10:19.671Z,83.13
2018-02-18T02:12:47.132Z,73.00
2018-02-18T02:15:14.594Z,76.33
2018-02-18T02:17:42.052Z,86.83
2018-02-18T02:20:09.511Z,82.47
2018-02-18T02:22:36.985Z,90.83
2018-02-18T02:25:05.212Z,85.93
2018-02-18T02:27:32.663Z,96.87
2018-02-18T02:30:00.127Z,82.83
2018-02-18T02:32:27.588Z,89.97
2018-02-18T02:34:55.040Z,84.23
2018-02-18T02:37:22.500Z,77.03
2018-02-18T02:39:49.952Z,84.50
2018-02-18T02:42:17.415Z,79.77
2018-02-18T02:44:44.870Z,94.37
2018-02-18T02:47:12.320Z,87.37
2018-02-18T02:49:39.771Z,84.87
2018-02-18T02:52:07.277Z,72.60
2018-02-18T02:54:34.680Z,85.73
2018-02-18T02:57:02.135Z,88.50
2018-02-18T02:59:29.579Z,83.60
2018-02-18T03:01:57.036Z,83.00
2018-02-18T03:04:25.262Z,86.57
2018-02-18T03:06:52.715Z,86.63
2018-02-18T03:09:20.171Z,79.47
2018-02-18T03:11:47.628Z,82.10
2018-02-18T03:14:15.078Z,82.13
2018-02-18T03:16:42.544Z,84.37
2018-02-18T03:19:09.996Z,92.50
2018-02-18T03:21:37.451Z,93.10
2018-02-18T03:24:04.908Z,80.57
2018-02-18T03:26:32.374Z,85.20
2018-02-18T03:28:59.824Z,86.63
2018-02-18T03:31:27.288Z,87.40
2018-02-18T03:33:54.731Z,95.40
2018-02-18T03:36:22.191Z,89.90
2018-02-18T03:38:49.648Z,91.97
2018-02-18T03:41:17.103Z,85.63
2018-02-18T03:43:44.560Z,88.23
2018-02-18T03:46:12.015Z,94.47
2018-02-18T03:48:39.470Z,93.03
2018-02-18T03:51:06.931Z,92.30
2018-02-18T03:53:34.388Z,89.70
2018-02-18T03:56:01.852Z,85.57
2018-02-18T03:58:29.304Z,87.17
2018-02-18T04:00:56.760Z,95.40
2018-02-18T04:03:24.219Z,87.87
2018-02-18T04:05:51.675Z,81.73
2018-02-18T04:08:19.137Z,89.90
2018-02-18T04:10:46.588Z,94.13
2018-02-18T04:13:14.040Z,87.87
2018-02-18T04:15:41.491Z,76.70
2018-02-18T04:18:08.960Z,76.63
2018-02-18T04:20:36.403Z,72.70
2018-02-18T04:23:03.864Z,72.57
2018-02-18T04:25:31.311Z,73.37
2018-02-18T04:27:58.783Z,84.80
2018-02-18T04:30:26.241Z,82.87
2018-02-18T04:32:53.699Z,81.67
2018-02-18T04:35:21.158Z,88.40
2018-02-18T04:37:48.620Z,76.23
2018-02-18T04:40:16.075Z,76.80
2018-02-18T04:42:43.532Z,83.60
2018-02-18T04:45:10.975Z,81.60
2018-02-18T04:47:38.439Z,74.27
2018-02-18T04:50:05.887Z,72.00
2018-02-18T04:52:33.339Z,81.77
2018-02-18T04:55:01.417Z,76.77
2018-02-18T04:57:28.871Z,86.83
2018-02-18T04:59:56.323Z,81.83
2018-02-18T05:02:23.792Z,81.30
2018-02-18T05:04:51.243Z,75.20
2018-02-18T05:07:18.696Z,87.43
2018-02-18T05:09:46.151Z,95.43
2018-02-18T05:12:13.607Z,92.00
2018-02-18T05:14:41.063Z,84.33
2018-02-18T05:17:08.517Z,89.23
2018-02-18T05:19:35.963Z,78.47
2018-02-18T05:22:04.231Z,82.37
2018-02-18T05:24:31.687Z,77.40
2018-02-18T05:26:59.136Z,79.43
2018-02-18T05:29:26.596Z,83.20
2018-02-18T05:31:54.062Z,90.50
2018-02-18T05:34:21.522Z,89.97
2018-02-18T05:36:48.983Z,93.60
2018-02-18T05:39:16.447Z,81.07
2018-02-18T05:41:43.899Z,80.93
2018-02-18T05:44:11.368Z,80.83
2018-02-18T05:46:38.824Z,88.00
2018-02-18T05:49:06.287Z,77.20
2018-02-18T05:51:33.734Z,95.87
2018-02-18T05:54:01.200Z,86.77
2018-02-18T05:56:28.653Z,87.37
2018-02-18T05:58:56.104Z,94.53
2018-02-18T06:01:23.559Z,80.90
2018-02-18T06:03:51.016Z,81.10
2018-02-18T06:06:18.476Z,74.23
2018-02-18T06:08:45.936Z,88.73
2018-02-18T06:11:13.387Z,87.10
2018-02-18T06:13:40.843Z,87.73
2018-02-18T06:16:08.302Z,86.67
2018-02-18T06:18:35.759Z,102.87
2018-02-18T06:21:03.219Z,89.20
2018-02-18T06:23:30.680Z,81.50
2018-02-18T06:25:58.134Z,93.03
2018-02-18T06:28:25.588Z,93.23
2018-02-18T06:30:53.044Z,112.30
2018-02-18T06:33:20.500Z,92.20
2018-02-18T06:35:47.959Z,94.23
2018-02-18T06:38:15.432Z,92.93
2018-02-18T06:40:42.868Z,88.93
2018-02-18T06:43:10.320Z,91.47
2018-02-18T06:45:37.771Z,82.77
2018-02-18T06:48:05.226Z,74.53
2018-02-18T06:50:32.682Z,94.97
2018-02-18T06:53:00.140Z,79.93
2018-02-18T06:55:27.611Z,106.90
2018-02-18T06:57:55.070Z,105.57
2018-02-18T07:00:22.519Z,110.03
2018-02-18T07:02:49.979Z,99.57
2018-02-18T07:05:17.446Z,103.20
2018-02-18T07:07:44.891Z,95.17
2018-02-18T07:10:12.348Z,93.07
2018-02-18T07:12:39.796Z,79.40
2018-02-18T07:15:07.259Z,82.83
2018-02-18T07:17:34.961Z,91.20
2018-02-18T07:20:02.450Z,92.13
2018-02-18T07:22:29.908Z,78.13
2018-02-18T07:24:57.351Z,79.27
2018-02-18T07:27:24.807Z,76.30
2018-02-18T07:29:52.268Z,69.87
2018-02-18T07:32:19.723Z,71.27
2018-02-18T07:34:48.171Z,69.73
2018-02-18T07:37:16.400Z,78.33
2018-02-18T07:39:43.847Z,82.27
2018-02-18T07:42:11.313Z,75.73
2018-02-18T07:44:38.763Z,78.97
2018-02-18T07:47:06.219Z,68.90
2018-02-18T07:49:33.688Z,72.40
2018-02-18T07:52:01.143Z,74.50
2018-02-18T07:54:28.596Z,74.67
2018-02-18T07:56:56.060Z,83.87
2018-02-18T07:59:23.506Z,88.57
2018-02-18T08:01:50.975Z,77.73
2018-02-18T08:04:18.424Z,68.53
2018-02-18T08:06:45.884Z,80.17
2018-02-18T08:09:13.340Z,74.23
2018-02-18T08:11:40.796Z,77.03
2018-02-18T08:14:08.246Z,72.60
2018-02-18T08:16:35.708Z,76.07
2018-02-18T08:19:03.165Z,77.87
2018-02-18T08:21:30.619Z,77.90
2018-02-18T08:23:58.064Z,85.20
2018-02-18T08:26:25.520Z,79.47
2018-02-18T08:28:52.971Z,70.90
2018-02-18T08:31:20.432Z,81.17
2018-02-18T08:33:47.887Z,77.00
2018-02-18T08:36:15.339Z,72.80
2018-02-18T08:38:42.804Z,86.90
2018-02-18T08:41:10.256Z,83.40
2018-02-18T08:43:37.732Z,82.10
2018-02-18T08:46:05.228Z,83.20
2018-02-18T08:48:32.717Z,77.80
2018-02-18T08:51:00.156Z,78.07
2018-02-18T08:53:27.627Z,75.90
2018-02-18T08:55:55.076Z,70.33
2018-02-18T08:58:22.536Z,66.07
2018-02-18T09:00:50.371Z,66.57
2018-02-18T09:03:17.823Z,64.50
2018-02-18T09:05:45.276Z,70.30
2018-02-18T09:08:13.520Z,60.33
2018-02-18T09:10:40.971Z,77.83
2018-02-18T09:13:08.432Z,72.17
2018-02-18T09:15:35.888Z,70.57
2018-02-18T09:18:03.344Z,77.50
2018-02-18T09:20:30.803Z,80.40
2018-02-18T09:22:58.260Z,72.70
2018-02-18T09:25:25.724Z,74.20
2018-02-18T09:27:53.188Z,72.33
2018-02-18T09:30:21.915Z,72.83
2018-02-18T09:32:49.392Z,76.07
2018-02-18T09:35:16.849Z,75.83
2018-02-18T09:37:44.335Z,78.83
2018-02-18T09:40:11.788Z,79.20
2018-02-18T09:42:39.247Z,65.37
2018-02-18T09:45:06.703Z,68.77
2018-02-18T09:47:34.152Z,72.87
2018-02-18T09:50:01.612Z,74.70
2018-02-18T09:52:29.072Z,66.50
2018-02-18T09:54:56.540Z,71.10
2018-02-18T09:57:24.789Z,64.67
2018-02-18T09:59:52.243Z,70.50
2018-02-18T10:02:19.707Z,69.90
2018-02-18T10:04:47.168Z,58.17
2018-02-18T10:07:14.622Z,71.37
2018-02-18T10:09:42.087Z,63.90
2018-02-18T10:12:09.540Z,64.47
2018-02-18T10:14:37.133Z,61.63
2018-02-18T10:17:04.619Z,62.90
2018-02-18T10:19:32.080Z,63.10
2018-02-18T10:21:59.552Z,59.83
2018-02-18T10:24:27.024Z,56.73
2018-02-18T10:26:54.480Z,62.53
2018-02-18T10:29:21.948Z,61.23
2018-02-18T10:31:49.409Z,56.97
2018-02-18T10:34:17.668Z,58.60
2018-02-18T10:36:45.876Z,57.30
2018-02-18T10:39:14.228Z,52.50
2018-02-18T10:41:41.692Z,52.07
2018-02-18T10:44:10.263Z,49.53
2018-02-18T10:46:38.039Z,47.00
2018-02-18T10:49:05.561Z,52.23
2018-02-18T10:51:33.564Z,51.10
2018-02-18T10:54:01.388Z,48.80
2018-02-18T10:56:29.572Z,44.23
2018-02-18T10:58:57.207Z,50.57
2018-02-18T11:01:25.538Z,41.07
2018-02-18T11:03:52.990Z,41.80
2018-02-18T11:06:21.376Z,34.30
2018-02-18T11:08:48.932Z,30.17
2018-02-18T11:11:16.512Z,27.67
2018-02-18T11:13:44.485Z,31.80
2018-02-18T11:16:12.817Z,32.00
2018-02-18T11:18:40.261Z,31.20
2018-02-18T11:21:07.715Z,29.30
2018-02-18T11:23:35.167Z,34.17
2018-02-18T11:26:02.631Z,36.90
2018-02-18T11:28:30.076Z,36.10
2018-02-18T11:30:57.539Z,34.90
2018-02-18T11:33:24.996Z,40.60
2018-02-18T11:35:52.451Z,38.30
2018-02-18T11:38:19.955Z,37.13
2018-02-18T11:40:47.412Z,33.90
2018-02-18T11:43:14.861Z,32.43
2018-02-18T11:45:42.320Z,30.20
2018-02-18T11:48:09.775Z,38.90
2018-02-18T11:50:37.246Z,32.43
2018-02-18T11:53:04.688Z,30.33
2018-02-18T11:55:32.143Z,33.70
2018-02-18T11:57:59.596Z,37.93
2018-02-18T12:00:27.056Z,33.17
2018-02-18T12:02:54.577Z,36.47
2018-02-18T12:05:22.036Z,40.60
2018-02-18T12:07:49.492Z,39.10
2018-02-18T12:10:16.947Z,40.33
2018-02-18T12:12:44.407Z,36.13
2018-02-18T12:15:11.859Z,37.57
2018-02-18T12:17:39.410Z,36.13
2018-02-18T12:20:06.863Z,42.00
2018-02-18T12:22:34.327Z,41.50
2018-02-18T12:25:01.789Z,41.60
2018-02-18T12:27:29.249Z,39.60
2018-02-18T12:29:56.708Z,46.83
2018-02-18T12:32:24.176Z,41.20
2018-02-18T12:34:51.635Z,39.50
2018-02-18T12:37:19.096Z,37.40
2018-02-18T12:39:46.544Z,46.43
2018-02-18T12:42:14.015Z,40.07
2018-02-18T12:44:41.576Z,40.63
2018-02-18T12:47:09.027Z,41.30
2018-02-18T12:49:36.483Z,39.33
2018-02-18T12:52:03.946Z,37.33
2018-02-18T12:54:31.401Z,42.63
2018-02-18T12:56:58.865Z,40.93
2018-02-18T12:59:27.091Z,46.27
2018-02-18T13:01:54.555Z,45.70
2018-02-18T13:04:22.020Z,39.70
2018-02-18T13:06:49.483Z,37.50
2018-02-18T13:09:16.944Z,43.00
2018-02-18T13:11:44.401Z,35.03
2018-02-18T13:14:11.857Z,35.30
2018-02-18T13:16:39.335Z,35.50
2018-02-18T13:19:07.580Z,41.73
2018-02-18T13:21:35.044Z,37.73
2018-02-18T13:24:02.501Z,33.90
2018-02-18T13:26:29.963Z,41.73
2018-02-18T13:28:57.428Z,35.30
2018-02-18T13:31:24.875Z,40.03
2018-02-18T13:33:52.349Z,38.90
2018-02-18T13:36:19.796Z,36.20
2018-02-18T13:38:47.264Z,36.53
2018-02-18T13:41:14.704Z,36.13
2018-02-18T13:43:42.167Z,37.60
2018-02-18T13:46:09.625Z,41.20
2018-02-18T13:48:37.092Z,37.93
2018-02-18T13:51:04.551Z,38.40
2018-02-18T13:53:32.008Z,45.50
2018-02-18T13:56:00.231Z,42.63
2018-02-18T13:58:27.742Z,40.60
2018-02-18T14:00:55.168Z,41.50
2018-02-18T14:03:22.640Z,40.40
2018-02-18T14:05:50.093Z,43.27
2018-02-18T14:08:17.559Z,42.77
2018-02-18T14:10:45.015Z,47.43
2018-02-18T14:13:12.476Z,46.80
2018-02-18T14:15:39.932Z,44.30
2018-02-18T14:18:08.423Z,46.60
2018-02-18T14:20:37.311Z,41.40
2018-02-18T14:23:04.849Z,43.60
2018-02-18T14:25:32.308Z,47.20
2018-02-18T14:27:59.763Z,54.10
2018-02-18T14:30:27.217Z,47.07
2018-02-18T14:32:54.683Z,43.07
2018-02-18T14:35:22.148Z,44.33
2018-02-18T14:37:50.371Z,46.60
2018-02-18T14:40:17.827Z,42.27
2018-02-18T14:42:57.112Z,47.47
2018-02-18T14:45:37.184Z,41.03
2018-02-18T14:48:16.568Z,42.70
2018-02-18T14:50:56.080Z,47.70
2018-02-18T14:53:35.519Z,42.33
2018-02-18T14:58:57.646Z,42.17
2018-02-18T15:01:25.107Z,45.03
2018-02-18T15:03:52.565Z,43.80
2018-02-18T15:06:20.016Z,41.77
2018-02-18T15:08:47.476Z,45.57
2018-02-18T15:11:14.927Z,38.00
2018-02-18T15:13:42.376Z,49.30
2018-02-18T15:16:10.611Z,45.37
2018-02-18T15:18:38.068Z,42.00
2018-02-18T15:21:06.523Z,37.47
2018-02-18T15:23:34.052Z,45.53
2018-02-18T15:26:01.464Z,42.33
2018-02-18T15:28:28.908Z,42.83
2018-02-18T15:30:56.364Z,37.47
2018-02-18T15:33:23.816Z,42.40
2018-02-18T15:35:51.439Z,42.80
2018-02-18T15:38:19.160Z,41.17
2018-02-18T15:40:46.616Z,51.13
2018-02-18T15:43:14.071Z,39.47
2018-02-18T15:45:41.532Z,36.90
2018-02-18T15:48:08.984Z,42.80
2018-02-18T15:50:36.440Z,43.13
2018-02-18T15:53:03.896Z,43.37
2018-02-18T15:55:31.348Z,41.63
2018-02-18T15:57:58.807Z,42.37
2018-02-18T16:00:26.268Z,34.23
2018-02-18T16:02:53.716Z,43.10
2018-02-18T16:05:21.179Z,41.90
2018-02-18T16:07:48.636Z,40.03
2018-02-18T16:10:16.890Z,38.60
2018-02-18T16:12:44.342Z,47.50
2018-02-18T16:15:11.934Z,47.20
2018-02-18T16:17:39.399Z,47.90
2018-02-18T16:20:07.304Z,67.73
2018-02-18T16:22:35.607Z,52.70
2018-02-18T16:25:03.088Z,47.60
2018-02-18T16:27:30.539Z,52.87
2018-02-18T16:29:57.995Z,43.40
2018-02-18T16:32:25.446Z,37.50
2018-02-18T16:34:52.904Z,44.30
2018-02-18T16:37:20.372Z,46.30
2018-02-18T16:39:47.831Z,43.87
2018-02-18T16:42:15.302Z,51.83
2018-02-18T16:44:42.751Z,38.53
2018-02-18T16:47:10.974Z,49.10
2018-02-18T16:49:38.419Z,48.60
2018-02-18T16:52:06.650Z,48.93
2018-02-18T16:54:34.131Z,49.23
2018-02-18T16:57:01.582Z,48.83
2018-02-18T16:59:29.031Z,50.33
2018-02-18T17:01:56.491Z,48.00
2018-02-18T17:04:23.943Z,49.37
2018-02-18T17:06:51.403Z,59.57
2018-02-18T17:09:18.863Z,47.93
2018-02-18T17:11:46.378Z,53.33
2018-02-18T17:14:14.595Z,56.40
2018-02-18T17:16:42.047Z,46.10
2018-02-18T17:19:09.980Z,45.80
2018-02-18T17:21:37.538Z,50.67
2018-02-18T17:24:04.994Z,52.53
2018-02-18T17:26:32.453Z,59.90
2018-02-18T17:28:59.909Z,50.67
2018-02-18T17:31:27.364Z,51.73
2018-02-18T17:33:54.819Z,54.77
2018-02-18T17:36:22.353Z,58.60
2018-02-18T17:38:49.838Z,53.90
2018-02-18T17:41:17.291Z,52.17
2018-02-18T17:43:44.748Z,50.20
2018-02-18T17:46:12.203Z,54.50
2018-02-18T17:48:39.659Z,56.17
2018-02-18T17:51:07.115Z,53.57
2018-02-18T17:53:34.576Z,49.83
2018-02-18T17:56:02.811Z,49.77
2018-02-18T17:58:31.450Z,57.03
2018-02-18T18:00:58.991Z,52.37
2018-02-18T18:03:26.447Z,55.37
2018-02-18T18:05:53.912Z,57.30
2018-02-18T18:08:21.367Z,61.03
2018-02-18T18:10:48.815Z,60.97
2018-02-18T18:13:16.304Z,57.87
2018-02-18T18:15:43.765Z,59.73
2018-02-18T18:18:11.223Z,51.43
2018-02-18T18:20:38.684Z,53.07
2018-02-18T18:23:06.135Z,54.37
2018-02-18T18:25:33.702Z,51.27
2018-02-18T18:28:01.147Z,59.93
2018-02-18T18:30:28.603Z,49.93
2018-02-18T18:32:56.138Z,53.47
2018-02-18T18:35:23.535Z,53.63
2018-02-18T18:37:50.976Z,45.43
2018-02-18T18:40:18.440Z,46.57
2018-02-18T18:42:45.887Z,75.57
2018-02-18T18:45:13.351Z,61.57
2018-02-18T18:47:40.795Z,68.97
2018-02-18T18:50:08.263Z,53.30
2018-02-18T18:52:36.327Z,72.43
2018-02-18T18:55:03.785Z,68.73
2018-02-18T18:57:32.126Z,68.80
2018-02-18T18:59:59.589Z,64.23
2018-02-18T19:02:27.043Z,52.70
2018-02-18T19:04:54.510Z,57.93
2018-02-18T19:07:21.966Z,47.53
2018-02-18T19:09:49.435Z,51.47
2018-02-18T19:12:16.885Z,51.20
2018-02-18T19:14:44.375Z,54.90
2018-02-18T19:17:12.603Z,46.43
2018-02-18T19:19:40.062Z,43.90
2018-02-18T19:22:07.523Z,48.00
2018-02-18T19:24:34.982Z,49.70
2018-02-18T19:27:02.439Z,52.57
2018-02-18T19:29:29.911Z,46.97
2018-02-18T19:31:57.364Z,50.90
2018-02-18T19:34:24.867Z,51.57
2018-02-18T19:36:52.315Z,47.13
2018-02-18T19:39:20.538Z,43.80
2018-02-18T19:41:47.999Z,41.10
2018-02-18T19:44:16.241Z,40.87
2018-02-18T19:46:43.697Z,42.07
2018-02-18T19:49:11.178Z,61.30
2018-02-18T19:51:38.638Z,32.67
2018-02-18T19:54:06.084Z,41.60
2018-02-18T19:56:33.559Z,40.33
2018-02-18T19:59:01.036Z,42.13
2018-02-18T20:01:29.299Z,43.90
2018-02-18T20:03:56.763Z,41.93
2018-02-18T20:06:24.232Z,46.00
2018-02-18T20:08:51.730Z,36.67
2018-02-18T20:11:19.171Z,37.90
2018-02-18T20:13:46.655Z,36.80
2018-02-18T20:16:14.115Z,37.40
2018-02-18T20:18:41.581Z,37.67
2018-02-18T20:21:09.043Z,35.23
2018-02-18T20:23:36.494Z,40.30
2018-02-18T20:26:03.959Z,36.00
2018-02-18T20:28:31.407Z,40.43
2018-02-18T20:30:58.870Z,33.27
2018-02-18T20:33:26.338Z,32.00
2018-02-18T20:35:53.802Z,31.23
2018-02-18T20:38:21.260Z,26.10
2018-02-18T20:40:48.712Z,27.17
2018-02-18T20:43:16.164Z,25.10
2018-02-18T20:45:44.383Z,29.13
2018-02-18T20:48:11.832Z,26.50
2018-02-18T20:50:40.073Z,26.33
2018-02-18T20:53:07.531Z,28.47
2018-02-18T20:55:34.992Z,25.50
2018-02-18T20:58:02.453Z,32.53
2018-02-18T21:00:29.907Z,36.50
2018-02-18T21:02:57.359Z,32.73
2018-02-18T21:05:24.822Z,31.93
2018-02-18T21:07:52.276Z,33.80
2018-02-18T21:10:19.731Z,34.30
2018-02-18T21:12:47.478Z,28.67
2018-02-18T21:15:14.936Z,30.23
2018-02-18T21:17:42.407Z,29.00
2018-02-18T21:20:09.878Z,27.87
2018-02-18T21:22:37.433Z,33.43
2018-02-18T21:25:05.671Z,30.50
2018-02-18T21:27:33.123Z,32.43
2018-02-18T21:30:00.575Z,27.47
2018-02-18T21:32:28.095Z,29.60
2018-02-18T21:34:56.327Z,29.40
2018-02-18T21:37:23.904Z,27.67
2018-02-18T21:39:51.344Z,29.97
2018-02-18T21:42:18.881Z,29.57
2018-02-18T21:44:47.106Z,26.50
2018-02-18T21:47:14.571Z,28.00
2018-02-18T21:49:42.816Z,26.77
2018-02-18T21:52:10.397Z,28.37
2018-02-18T21:54:37.883Z,31.80
2018-02-18T21:57:05.387Z,26.63
2018-02-18T21:59:32.947Z,29.57
2018-02-18T22:02:01.269Z,30.40
2018-02-18T22:04:28.961Z,29.77
2018-02-18T22:06:57.281Z,26.80
2018-02-18T22:09:24.700Z,28.47
2018-02-18T22:11:52.216Z,28.73
2018-02-18T22:14:20.433Z,27.00
2018-02-18T22:16:47.883Z,27.17
2018-02-18T22:19:15.335Z,26.80
2018-02-18T22:21:42.800Z,28.63
2018-02-18T22:24:10.331Z,24.87
2018-02-18T22:26:37.809Z,29.80
2018-02-18T22:29:05.259Z,26.17
2018-02-18T22:31:32.710Z,25.17
2018-02-18T22:34:00.171Z,22.30
2018-02-18T22:36:27.628Z,20.00
2018-02-18T22:38:55.083Z,21.77
2018-02-18T22:41:23.303Z,21.13
2018-02-18T22:43:50.755Z,23.57
2018-02-18T22:46:18.207Z,22.20
2018-02-18T22:48:45.660Z,21.17
2018-02-18T22:51:13.119Z,21.10
2018-02-18T22:53:40.572Z,21.80
2018-02-18T22:56:08.028Z,21.00
2018-02-18T22:58:35.486Z,20.30
2018-02-18T23:01:02.940Z,19.50
2018-02-18T23:03:30.400Z,20.27
2018-02-18T23:05:57.845Z,22.70
2018-02-18T23:08:25.298Z,22.87
2018-02-18T23:10:52.752Z,22.57
2018-02-18T23:13:20.210Z,22.87
2018-02-18T23:15:47.664Z,23.13
2018-02-18T23:18:15.122Z,23.90
2018-02-18T23:20:54.807Z,21.93
2018-02-18T23:23:23.032Z,23.43
2018-02-18T23:25:50.488Z,23.43
2018-02-18T23:28:17.952Z,26.47
2018-02-18T23:30:45.413Z,29.07
2018-02-18T23:33:12.866Z,29.73
2018-02-18T23:35:40.325Z,28.63
2018-02-18T23:38:07.778Z,29.37
2018-02-18T23:40:35.227Z,24.10
2018-02-18T23:43:02.687Z,23.87
2018-02-18T23:45:30.134Z,25.50
2018-02-18T23:47:57.593Z,26.37
2018-02-18T23:50:25.043Z,25.87
2018-02-18T23:52:53.259Z,29.10
2018-02-18T23:55:20.710Z,27.53
2018-02-18T23:57:48.165Z,26.63
